createdAt,value
2022-09-03T00:00:46.686Z,1.95
2022-09-03T00:03:13.081Z,1.85
2022-09-03T00:05:39.934Z,1.65
2022-09-03T00:08:09.753Z,1.92
2022-09-03T00:10:36.071Z,2.00
2022-09-03T00:13:02.694Z,2.00
2022-09-03T00:15:28.999Z,1.50
2022-09-03T00:17:55.309Z,2.10
2022-09-03T00:20:21.608Z,1.50
2022-09-03T00:22:47.905Z,1.75
2022-09-03T00:25:14.546Z,1.70
2022-09-03T00:27:40.864Z,1.77
2022-09-03T00:30:07.168Z,1.73
2022-09-03T00:32:35.115Z,2.05
2022-09-03T00:35:01.415Z,1.63
2022-09-03T00:37:28.691Z,2.17
2022-09-03T00:39:59.117Z,2.08
2022-09-03T00:42:25.419Z,1.77
2022-09-03T00:44:51.712Z,2.15
2022-09-03T00:47:18.680Z,1.60
2022-09-03T00:49:44.972Z,1.92
2022-09-03T00:52:12.373Z,2.35
2022-09-03T00:54:40.476Z,1.98
2022-09-03T00:57:08.120Z,1.85
2022-09-03T00:59:34.533Z,2.03
2022-09-03T01:02:00.955Z,1.67
2022-09-03T01:04:27.436Z,1.63
2022-09-03T01:06:54.740Z,2.35
2022-09-03T01:09:21.068Z,1.60
2022-09-03T01:11:47.404Z,2.00
2022-09-03T01:14:13.712Z,1.80
2022-09-03T01:16:40.256Z,2.22
2022-09-03T01:19:06.557Z,1.58
2022-09-03T01:21:34.722Z,1.65
2022-09-03T01:24:01.008Z,2.08
2022-09-03T01:26:27.338Z,1.92
2022-09-03T01:28:54.735Z,2.13
2022-09-03T01:31:21.198Z,1.80
2022-09-03T01:33:47.617Z,1.90
2022-09-03T01:36:13.907Z,1.67
2022-09-03T01:38:40.200Z,1.67
2022-09-03T01:41:25.036Z,1.90
2022-09-03T01:43:51.709Z,1.90
2022-09-03T01:46:18.048Z,1.85
2022-09-03T01:48:44.382Z,1.98
2022-09-03T01:51:11.025Z,1.90
2022-09-03T01:53:37.345Z,2.17
2022-09-03T01:56:09.904Z,1.83
2022-09-03T01:58:36.268Z,2.22
2022-09-03T02:01:02.563Z,2.10
2022-09-03T02:03:28.857Z,1.83
2022-09-03T02:05:55.155Z,1.75
2022-09-03T02:08:21.455Z,1.88
2022-09-03T02:10:47.900Z,1.88
2022-09-03T02:13:14.200Z,2.22
2022-09-03T02:15:40.555Z,2.63
2022-09-03T02:18:06.908Z,2.22
2022-09-03T02:20:33.195Z,1.95
2022-09-03T02:22:59.541Z,2.25
2022-09-03T02:25:25.830Z,2.28
2022-09-03T02:27:52.132Z,2.33
2022-09-03T02:30:18.690Z,1.70
2022-09-03T02:32:44.984Z,1.73
2022-09-03T02:35:11.345Z,1.90
2022-09-03T02:37:39.664Z,1.90
2022-09-03T02:40:08.839Z,1.88
2022-09-03T02:42:35.204Z,1.88
2022-09-03T02:45:01.510Z,1.80
2022-09-03T02:47:27.837Z,1.60
2022-09-03T02:49:54.213Z,2.03
2022-09-03T02:52:20.527Z,2.30
2022-09-03T02:54:46.832Z,2.00
2022-09-03T02:57:13.449Z,2.05
2022-09-03T02:59:39.998Z,2.00
2022-09-03T03:02:06.351Z,2.03
2022-09-03T03:04:32.855Z,2.10
2022-09-03T03:06:59.180Z,2.03
2022-09-03T03:09:25.475Z,2.00
2022-09-03T03:11:52.176Z,1.73
2022-09-03T03:14:18.684Z,2.20
2022-09-03T03:16:45.169Z,1.90
2022-09-03T03:19:11.527Z,1.98
2022-09-03T03:21:38.010Z,1.80
2022-09-03T03:24:04.367Z,3.75
2022-09-03T03:26:31.208Z,2.00
2022-09-03T03:28:57.499Z,1.70
2022-09-03T03:31:23.823Z,1.98
2022-09-03T03:33:50.123Z,2.42
2022-09-03T03:36:16.435Z,1.55
2022-09-03T03:38:42.723Z,1.75
2022-09-03T03:41:09.024Z,2.15
2022-09-03T03:43:35.324Z,2.10
2022-09-03T03:46:01.679Z,3.08
2022-09-03T03:48:28.054Z,2.38
2022-09-03T03:50:54.355Z,1.88
2022-09-03T03:53:20.661Z,2.20
2022-09-03T03:55:46.952Z,1.90
2022-09-03T03:58:13.239Z,2.35
2022-09-03T04:00:39.531Z,2.00
2022-09-03T04:03:05.836Z,2.03
2022-09-03T04:05:33.828Z,2.00
2022-09-03T04:10:26.569Z,2.15
2022-09-03T04:12:52.865Z,2.42
2022-09-03T04:15:19.177Z,2.50
2022-09-03T04:17:45.508Z,2.17
2022-09-03T04:20:11.837Z,2.15
2022-09-03T04:22:38.141Z,2.05
2022-09-03T04:25:04.474Z,2.30
2022-09-03T04:27:31.160Z,2.10
2022-09-03T04:29:57.451Z,2.30
2022-09-03T04:32:42.367Z,2.10
2022-09-03T04:35:08.663Z,1.98
2022-09-03T04:37:34.989Z,1.75
2022-09-03T04:40:01.342Z,2.28
2022-09-03T04:42:27.692Z,1.80
2022-09-03T04:44:54.001Z,1.77
2022-09-03T04:47:20.325Z,1.80
2022-09-03T04:49:46.946Z,2.05
2022-09-03T04:52:13.250Z,1.98
2022-09-03T04:54:39.557Z,1.77
2022-09-03T04:57:05.861Z,2.00
2022-09-03T04:59:32.165Z,1.88
2022-09-03T05:01:58.485Z,1.70
2022-09-03T05:04:24.827Z,2.17
2022-09-03T05:06:51.134Z,2.20
2022-09-03T05:09:17.433Z,1.90
2022-09-03T05:11:44.215Z,1.80
2022-09-03T05:14:12.551Z,2.13
2022-09-03T05:16:38.943Z,1.90
2022-09-03T05:19:06.063Z,1.90
2022-09-03T05:21:32.390Z,2.47
2022-09-03T05:23:58.727Z,2.17
2022-09-03T05:26:25.187Z,1.92
2022-09-03T05:28:51.492Z,1.83
2022-09-03T05:31:17.857Z,2.05
2022-09-03T05:33:44.201Z,1.60
2022-09-03T05:36:10.541Z,2.15
2022-09-03T05:38:36.843Z,2.00
2022-09-03T05:41:03.140Z,1.85
2022-09-03T05:43:29.445Z,1.92
2022-09-03T05:45:55.863Z,1.83
2022-09-03T05:48:22.239Z,2.33
2022-09-03T05:50:49.675Z,1.70
2022-09-03T05:53:18.472Z,1.80
2022-09-03T05:55:44.765Z,2.00
2022-09-03T05:58:11.075Z,2.08
2022-09-03T06:00:37.364Z,1.67
2022-09-03T06:03:03.782Z,1.90
2022-09-03T06:05:30.169Z,1.95
2022-09-03T06:07:56.464Z,2.45
2022-09-03T06:10:26.900Z,2.00
2022-09-03T06:13:02.684Z,1.80
2022-09-03T06:15:28.996Z,1.80
2022-09-03T06:17:55.320Z,1.83
2022-09-03T06:20:21.731Z,1.38
2022-09-03T06:22:48.043Z,1.30
2022-09-03T06:25:15.269Z,1.50
2022-09-03T06:27:41.715Z,1.33
2022-09-03T06:30:08.016Z,1.60
2022-09-03T06:32:34.397Z,1.48
2022-09-03T06:35:00.691Z,1.40
2022-09-03T06:37:27.013Z,1.70
2022-09-03T06:39:54.446Z,1.83
2022-09-03T06:42:22.799Z,1.77
2022-09-03T06:44:49.096Z,2.47
2022-09-03T06:47:15.396Z,1.35
2022-09-03T06:49:41.688Z,1.42
2022-09-03T06:52:08.005Z,1.38
2022-09-03T06:54:34.314Z,1.20
2022-09-03T06:57:00.604Z,1.48
2022-09-03T06:59:26.939Z,1.40
2022-09-03T07:01:53.535Z,1.50
2022-09-03T07:04:20.613Z,1.10
2022-09-03T07:06:47.195Z,0.98
2022-09-03T07:09:15.329Z,0.90
2022-09-03T07:11:46.907Z,1.10
2022-09-03T07:14:16.235Z,1.10
2022-09-03T07:16:43.325Z,1.20
2022-09-03T07:19:09.884Z,1.30
2022-09-03T07:21:44.041Z,1.20
2022-09-03T07:24:14.744Z,1.00
2022-09-03T07:26:41.254Z,1.58
2022-09-03T07:29:07.812Z,1.55
2022-09-03T07:31:34.193Z,1.25
2022-09-03T07:34:00.544Z,1.10
2022-09-03T07:36:26.974Z,1.10
2022-09-03T07:38:53.987Z,1.38
2022-09-03T07:41:28.681Z,1.10
2022-09-03T07:43:55.368Z,1.30
2022-09-03T07:46:24.733Z,1.23
2022-09-03T07:48:51.965Z,1.10
2022-09-03T07:51:18.283Z,1.33
2022-09-03T07:53:44.580Z,1.42
2022-09-03T07:56:10.896Z,1.23
2022-09-03T07:58:37.187Z,1.23
2022-09-03T08:01:03.649Z,1.20
2022-09-03T08:03:30.256Z,1.10
2022-09-03T08:05:56.613Z,1.17
2022-09-03T08:08:23.787Z,1.40
2022-09-03T08:10:50.101Z,1.08
2022-09-03T08:13:16.401Z,1.10
2022-09-03T08:15:42.859Z,1.42
2022-09-03T08:18:10.144Z,1.10
2022-09-03T08:20:38.745Z,1.00
2022-09-03T08:23:05.037Z,0.95
2022-09-03T08:25:31.363Z,0.82
2022-09-03T08:27:57.660Z,1.13
2022-09-03T08:30:26.163Z,1.08
2022-09-03T08:32:54.532Z,1.45
2022-09-03T08:35:22.008Z,1.02
2022-09-03T08:37:54.812Z,1.30
2022-09-03T08:40:24.205Z,1.20
2022-09-03T08:42:50.525Z,1.33
2022-09-03T08:45:16.853Z,0.93
2022-09-03T08:47:43.225Z,1.55
2022-09-03T08:50:11.727Z,0.95
2022-09-03T08:52:38.412Z,1.05
2022-09-03T08:55:04.711Z,1.20
2022-09-03T08:57:31.015Z,1.33
2022-09-03T08:59:57.393Z,0.88
2022-09-03T09:02:25.427Z,1.00
2022-09-03T09:04:51.905Z,1.30
2022-09-03T09:07:18.225Z,1.00
2022-09-03T09:09:48.757Z,1.00
2022-09-03T09:12:16.020Z,1.23
2022-09-03T09:14:42.448Z,1.30
2022-09-03T09:17:09.027Z,1.05
2022-09-03T09:19:35.327Z,1.13
2022-09-03T09:22:01.643Z,1.35
2022-09-03T09:24:27.940Z,1.25
2022-09-03T09:26:54.239Z,1.40
2022-09-03T09:29:20.532Z,1.38
2022-09-03T09:31:47.427Z,1.40
2022-09-03T09:34:13.929Z,1.63
2022-09-03T09:36:40.219Z,1.40
2022-09-03T09:39:06.516Z,1.52
2022-09-03T09:41:33.395Z,1.40
2022-09-03T09:43:59.717Z,1.15
2022-09-03T09:46:26.045Z,1.00
2022-09-03T09:48:52.374Z,1.85
2022-09-03T09:51:18.687Z,1.40
2022-09-03T09:53:45.072Z,1.60
2022-09-03T09:56:11.374Z,1.20
2022-09-03T09:58:37.733Z,1.10
2022-09-03T10:01:04.073Z,1.25
2022-09-03T10:03:31.238Z,1.35
2022-09-03T10:05:57.648Z,1.08
2022-09-03T10:08:24.941Z,1.10
2022-09-03T10:10:51.307Z,1.20
2022-09-03T10:13:19.326Z,1.33
2022-09-03T10:15:46.427Z,1.35
2022-09-03T10:18:12.875Z,1.27
2022-09-03T10:20:39.331Z,1.15
2022-09-03T10:23:05.628Z,1.20
2022-09-03T10:25:32.173Z,1.67
2022-09-03T10:28:00.889Z,1.27
2022-09-03T10:30:28.823Z,1.27
2022-09-03T10:32:59.384Z,1.20
2022-09-03T10:35:28.270Z,1.20
2022-09-03T10:37:54.580Z,1.45
2022-09-03T10:40:21.748Z,1.00
2022-09-03T10:42:48.058Z,1.42
2022-09-03T10:45:14.403Z,1.13
2022-09-03T10:47:41.077Z,1.92
2022-09-03T10:50:07.385Z,1.35
2022-09-03T10:52:33.725Z,1.40
2022-09-03T10:55:00.068Z,1.20
2022-09-03T10:57:26.460Z,2.10
2022-09-03T10:59:53.833Z,1.23
2022-09-03T11:02:21.152Z,1.13
2022-09-03T11:04:49.352Z,1.17
2022-09-03T11:07:15.923Z,1.50
2022-09-03T11:09:42.220Z,1.42
2022-09-03T11:12:08.530Z,1.20
2022-09-03T11:14:34.823Z,1.77
2022-09-03T11:17:01.163Z,1.20
2022-09-03T11:19:27.468Z,1.63
2022-09-03T11:21:53.777Z,1.20
2022-09-03T11:24:20.080Z,1.10
2022-09-03T11:26:48.320Z,1.48
2022-09-03T11:29:14.614Z,1.33
2022-09-03T11:31:40.915Z,1.23
2022-09-03T11:34:07.243Z,1.27
2022-09-03T11:36:34.639Z,1.35
2022-09-03T11:39:00.943Z,1.17
2022-09-03T11:41:27.270Z,1.20
2022-09-03T11:43:54.378Z,1.10
2022-09-03T11:46:21.592Z,1.63
2022-09-03T11:48:48.320Z,0.98
2022-09-03T11:51:14.612Z,1.40
2022-09-03T11:53:40.906Z,1.10
2022-09-03T11:56:07.296Z,1.23
2022-09-03T11:58:34.616Z,1.10
2022-09-03T12:01:01.490Z,1.35
2022-09-03T12:03:28.409Z,1.23
2022-09-03T12:05:54.647Z,0.90
2022-09-03T12:08:20.951Z,1.00
2022-09-03T12:10:47.453Z,1.20
2022-09-03T12:13:13.744Z,0.80
2022-09-03T12:15:40.105Z,1.13
2022-09-03T12:18:22.384Z,1.20
2022-09-03T12:20:48.878Z,1.20
2022-09-03T12:23:15.213Z,1.20
2022-09-03T12:25:41.527Z,1.35
2022-09-03T12:28:07.834Z,1.10
2022-09-03T12:30:34.164Z,1.00
2022-09-03T12:33:04.228Z,1.15
2022-09-03T12:38:18.779Z,0.88
2022-09-03T12:43:49.938Z,1.35
2022-09-03T12:46:17.643Z,1.10
2022-09-03T12:53:57.220Z,0.98
2022-09-03T12:56:25.685Z,1.35
2022-09-03T12:58:52.500Z,1.17
2022-09-03T13:01:18.875Z,1.05
2022-09-03T13:03:45.347Z,1.15
2022-09-03T13:06:12.217Z,1.50
2022-09-03T13:08:38.461Z,1.10
2022-09-03T13:11:06.415Z,1.20
2022-09-03T13:13:32.813Z,1.80
2022-09-03T13:15:59.115Z,1.02
2022-09-03T13:18:25.446Z,1.20
2022-09-03T13:20:52.095Z,1.30
2022-09-03T13:23:18.466Z,1.13
2022-09-03T13:25:44.897Z,1.00
2022-09-03T13:28:11.229Z,1.35
2022-09-03T13:30:38.041Z,1.13
2022-09-03T13:33:04.319Z,1.10
2022-09-03T13:35:30.713Z,1.35
2022-09-03T13:37:58.097Z,1.08
2022-09-03T13:40:24.399Z,0.93
2022-09-03T13:42:53.570Z,1.55
2022-09-03T13:45:20.621Z,1.42
2022-09-03T13:48:05.800Z,1.10
2022-09-03T13:50:32.102Z,1.30
2022-09-03T13:52:59.214Z,0.80
2022-09-03T13:55:25.551Z,1.30
2022-09-03T13:57:51.977Z,1.63
2022-09-03T14:00:18.279Z,1.30
2022-09-03T14:02:44.907Z,1.10
2022-09-03T14:05:11.274Z,1.40
2022-09-03T14:07:37.582Z,1.08
2022-09-03T14:10:03.889Z,1.35
2022-09-03T14:12:31.603Z,1.30
2022-09-03T14:14:57.933Z,2.10
2022-09-03T14:17:27.251Z,1.40
2022-09-03T14:19:53.573Z,1.25
2022-09-03T14:22:19.863Z,1.02
2022-09-03T14:24:46.173Z,1.10
2022-09-03T14:27:12.480Z,1.75
2022-09-03T14:29:38.803Z,1.23
2022-09-03T14:32:05.168Z,1.63
2022-09-03T14:34:32.184Z,1.80
2022-09-03T14:36:58.501Z,1.45
2022-09-03T14:39:26.816Z,1.17
2022-09-03T14:41:54.649Z,1.05
2022-09-03T14:44:20.951Z,1.20
2022-09-03T14:46:47.261Z,1.13
2022-09-03T14:49:14.509Z,1.02
2022-09-03T14:51:40.816Z,1.42
2022-09-03T14:54:07.140Z,1.27
2022-09-03T14:56:33.423Z,1.25
2022-09-03T14:58:59.754Z,1.30
2022-09-03T15:01:26.091Z,1.00
2022-09-03T15:03:52.412Z,1.05
2022-09-03T15:06:18.706Z,1.30
2022-09-03T15:08:54.403Z,1.23
2022-09-03T15:11:22.085Z,1.20
2022-09-03T15:13:48.391Z,1.00
2022-09-03T15:16:14.716Z,1.20
2022-09-03T15:18:41.074Z,1.20
2022-09-03T15:21:07.368Z,1.10
2022-09-03T15:23:33.685Z,1.55
2022-09-03T15:26:00.079Z,1.30
2022-09-03T15:28:28.978Z,1.30
2022-09-03T15:30:57.480Z,1.40
2022-09-03T15:33:23.787Z,1.25
2022-09-03T15:35:51.501Z,1.25
2022-09-03T15:38:18.411Z,0.93
2022-09-03T15:40:44.953Z,1.17
2022-09-03T15:43:12.559Z,1.58
2022-09-03T15:45:38.937Z,1.38
2022-09-03T15:48:05.300Z,1.30
2022-09-03T15:50:32.869Z,1.52
2022-09-03T15:52:59.193Z,1.00
2022-09-03T15:55:26.153Z,1.25
2022-09-03T15:57:52.389Z,1.50
2022-09-03T16:00:21.236Z,1.50
2022-09-03T16:02:49.179Z,1.60
2022-09-03T16:05:16.254Z,1.65
2022-09-03T16:07:42.571Z,1.58
2022-09-03T16:10:25.364Z,1.40
2022-09-03T16:12:52.485Z,1.80
2022-09-03T16:15:18.867Z,1.30
2022-09-03T16:17:45.812Z,1.27
2022-09-03T16:20:12.043Z,1.20
2022-09-03T16:22:38.344Z,1.40
2022-09-03T16:25:04.908Z,1.50
2022-09-03T16:27:31.248Z,2.22
2022-09-03T16:29:57.544Z,1.88
2022-09-03T16:32:26.892Z,1.23
2022-09-03T16:34:53.198Z,1.15
2022-09-03T16:37:19.493Z,1.52
2022-09-03T16:39:45.887Z,1.33
2022-09-03T16:42:12.215Z,1.30
2022-09-03T16:47:07.486Z,1.42
2022-09-03T16:49:37.451Z,2.25
2022-09-03T16:52:04.833Z,1.63
2022-09-03T16:54:31.186Z,1.83
2022-09-03T16:56:57.482Z,1.73
2022-09-03T16:59:23.820Z,2.00
2022-09-03T17:01:52.193Z,1.90
2022-09-03T17:04:18.713Z,2.00
2022-09-03T17:06:45.004Z,1.88
2022-09-03T17:09:11.304Z,1.50
2022-09-03T17:11:37.613Z,2.03
2022-09-03T17:14:04.272Z,1.88
2022-09-03T17:16:30.603Z,1.42
2022-09-03T17:18:56.943Z,2.10
2022-09-03T17:21:23.235Z,4.35
2022-09-03T17:23:49.539Z,3.00
2022-09-03T17:26:16.677Z,4.10
2022-09-03T17:28:42.979Z,3.60
2022-09-03T17:31:09.938Z,3.00
2022-09-03T17:33:36.381Z,2.13
2022-09-03T17:36:02.855Z,2.33
2022-09-03T17:38:29.153Z,2.17
2022-09-03T17:40:55.862Z,2.40
2022-09-03T17:43:22.150Z,2.03
2022-09-03T17:45:48.442Z,2.15
2022-09-03T17:48:14.822Z,1.75
2022-09-03T17:50:41.133Z,1.92
2022-09-03T17:53:07.432Z,2.20
2022-09-03T17:55:33.751Z,2.00
2022-09-03T17:58:00.097Z,1.45
2022-09-03T18:00:26.429Z,2.20
2022-09-03T18:02:53.027Z,2.03
2022-09-03T18:05:19.332Z,2.05
2022-09-03T18:07:45.634Z,2.47
2022-09-03T18:10:11.940Z,2.20
2022-09-03T18:12:38.725Z,2.13
2022-09-03T18:15:05.028Z,3.05
2022-09-03T18:17:31.333Z,2.50
2022-09-03T18:20:16.448Z,2.72
2022-09-03T18:23:01.287Z,2.42
2022-09-03T18:25:46.151Z,2.75
2022-09-03T18:28:30.927Z,2.80
2022-09-03T18:31:15.947Z,2.90
2022-09-03T18:34:01.076Z,2.92
2022-09-03T18:36:45.979Z,3.30
2022-09-03T18:39:30.874Z,3.10
2022-09-03T18:42:16.081Z,2.65
2022-09-03T18:45:19.827Z,3.45
2022-09-03T18:48:10.802Z,3.70
2022-09-03T18:51:00.411Z,3.00
2022-09-03T18:53:45.311Z,3.03
2022-09-03T18:56:30.203Z,3.47
2022-09-03T18:59:15.127Z,2.90
2022-09-03T19:02:00.241Z,2.97
2022-09-03T19:04:45.527Z,3.30
2022-09-03T19:07:30.273Z,3.28
2022-09-03T19:10:15.153Z,2.67
2022-09-03T19:13:00.147Z,2.65
2022-09-03T19:15:45.999Z,2.65
2022-09-03T19:18:31.184Z,3.30
2022-09-03T19:21:16.100Z,2.90
2022-09-03T19:24:00.885Z,2.85
2022-09-03T19:26:45.861Z,2.83
2022-09-03T19:29:30.668Z,3.15
2022-09-03T19:32:17.095Z,2.72
2022-09-03T19:35:01.868Z,2.78
2022-09-03T19:37:46.679Z,2.58
2022-09-03T19:40:31.847Z,3.10
2022-09-03T19:43:16.678Z,3.35
2022-09-03T19:46:03.509Z,3.25
2022-09-03T19:48:48.803Z,3.30
2022-09-03T19:51:33.844Z,2.92
2022-09-03T19:54:18.756Z,3.08
2022-09-03T19:57:03.547Z,3.00
2022-09-03T19:59:48.427Z,2.83
2022-09-03T20:02:33.422Z,3.13
2022-09-03T20:05:18.461Z,3.00
2022-09-03T20:08:03.308Z,2.95
2022-09-03T20:10:29.571Z,3.17
2022-09-03T20:12:55.921Z,3.05
2022-09-03T20:15:22.252Z,3.15
2022-09-03T20:17:48.547Z,3.40
2022-09-03T20:20:14.840Z,2.92
2022-09-03T20:22:41.160Z,2.95
2022-09-03T20:25:08.226Z,3.03
2022-09-03T20:27:34.519Z,3.42
2022-09-03T20:30:00.859Z,3.03
2022-09-03T20:32:27.160Z,3.20
2022-09-03T20:34:53.637Z,3.42
2022-09-03T20:37:24.592Z,3.90
2022-09-03T20:39:50.954Z,3.50
2022-09-03T20:42:17.281Z,3.90
2022-09-03T20:44:43.575Z,3.63
2022-09-03T20:47:10.123Z,3.75
2022-09-03T20:49:38.078Z,4.15
2022-09-03T20:54:33.613Z,3.83
2022-09-03T20:57:00.003Z,4.35
2022-09-03T20:59:26.306Z,5.05
2022-09-03T21:01:52.658Z,4.47
2022-09-03T21:04:18.996Z,4.30
2022-09-03T21:06:45.296Z,4.63
2022-09-03T21:09:11.596Z,4.88
2022-09-03T21:11:37.885Z,5.00
2022-09-03T21:14:04.193Z,4.88
2022-09-03T21:16:30.533Z,5.72
2022-09-03T21:18:56.828Z,5.55
2022-09-03T21:21:23.122Z,5.75
2022-09-03T21:23:49.426Z,5.78
2022-09-03T21:26:15.721Z,5.55
2022-09-03T21:28:42.157Z,6.47
2022-09-03T21:31:08.480Z,6.78
2022-09-03T21:33:34.813Z,6.55
2022-09-03T21:36:01.114Z,6.05
2022-09-03T21:38:27.830Z,6.45
2022-09-03T21:40:54.131Z,6.63
2022-09-03T21:43:20.475Z,7.18
2022-09-03T21:45:46.836Z,6.78
2022-09-03T21:48:14.167Z,8.02
2022-09-03T21:50:40.474Z,7.07
2022-09-03T21:53:06.855Z,32.00
2022-09-03T21:55:33.149Z,6.38
2022-09-03T21:57:59.439Z,7.32
2022-09-03T22:00:29.476Z,6.80
2022-09-03T22:02:59.033Z,7.80
2022-09-03T22:05:26.032Z,6.80
2022-09-03T22:07:53.568Z,5.77
2022-09-03T22:10:20.766Z,6.00
2022-09-03T22:12:47.004Z,20.80
2022-09-03T22:15:13.326Z,292.67
2022-09-03T22:17:43.927Z,95.03
2022-09-03T22:20:15.381Z,106.57
2022-09-03T22:22:44.048Z,44.60
2022-09-03T22:25:10.380Z,334.83
2022-09-03T22:27:36.680Z,214.85
2022-09-03T22:30:03.212Z,6.95
2022-09-03T22:32:29.655Z,13.75
2022-09-03T22:34:55.953Z,7.75
2022-09-03T22:37:23.293Z,220.05
2022-09-03T22:39:49.707Z,210.98
2022-09-03T22:42:16.135Z,34.45
2022-09-03T22:44:42.444Z,48.08
2022-09-03T22:47:08.788Z,86.30
2022-09-03T22:49:35.122Z,55.42
2022-09-03T22:52:01.657Z,66.82
2022-09-03T22:54:27.973Z,76.65
2022-09-03T22:56:54.433Z,217.18
2022-09-03T22:59:20.735Z,182.02
2022-09-03T23:01:47.048Z,78.15
2022-09-03T23:04:13.380Z,68.90
2022-09-03T23:06:39.700Z,58.05
2022-09-03T23:09:06.151Z,118.28
2022-09-03T23:11:32.478Z,52.40
2022-09-03T23:14:00.360Z,115.47
2022-09-03T23:16:27.754Z,157.27
2022-09-03T23:18:54.068Z,90.88
2022-09-03T23:21:22.156Z,96.25
2022-09-03T23:23:48.460Z,111.32
2022-09-03T23:26:14.771Z,94.53
2022-09-03T23:28:41.993Z,160.55
2022-09-03T23:31:08.295Z,97.32
2022-09-03T23:33:34.596Z,82.93
2022-09-03T23:36:00.902Z,121.57
2022-09-03T23:38:27.212Z,182.07
2022-09-03T23:40:53.525Z,130.10
2022-09-03T23:43:19.850Z,135.70
2022-09-03T23:45:46.204Z,120.43
2022-09-03T23:48:12.591Z,135.70
2022-09-03T23:50:39.914Z,177.18
2022-09-03T23:53:07.148Z,111.93
2022-09-03T23:55:33.451Z,104.57
2022-09-03T23:58:00.069Z,107.13
